Time;durP1;ratioP1;P1;durP2;ratioP2;P2;SDS_P1;SDS_P2;PMS_P1;PMS_P2;Temp;Humidity;BMP_temperature;BMP_pressure;BME280_temperature;BME280_humidity;BME280_pressure;Samples;Min_cycle;Max_cycle;Signal;HPM_P1;HPM_P2
2023/05/22 00:00:40;;;;;;;20.90;17.45;;;17.40;99.90;;;;;;5154465;27;20043;-65
2023/05/22 00:03:07;;;;;;;19.67;17.58;;;17.50;99.90;;;;;;5154254;27;20044;-65
2023/05/22 00:05:39;;;;;;;19.77;17.38;;;17.50;99.90;;;;;;5136089;27;20085;-65
2023/05/22 00:08:10;;;;;;;25.05;19.40;;;17.50;99.90;;;;;;5154740;27;20042;-65
2023/05/22 00:10:39;;;;;;;23.92;19.42;;;17.50;99.90;;;;;;5154306;27;20413;-65
2023/05/22 00:13:05;;;;;;;21.98;17.65;;;17.50;99.90;;;;;;5154594;27;20045;-65
2023/05/22 00:15:33;;;;;;;21.80;17.02;;;17.50;99.90;;;;;;5154240;27;20038;-65
2023/05/22 00:17:58;;;;;;;18.77;16.23;;;17.50;99.90;;;;;;5136167;27;20145;-65
2023/05/22 00:20:25;;;;;;;19.00;15.73;;;17.50;99.90;;;;;;5154429;27;20522;-65
2023/05/22 00:22:50;;;;;;;24.08;19.80;;;17.50;99.90;;;;;;5154162;27;20047;-65
2023/05/22 00:25:19;;;;;;;17.80;15.40;;;17.60;99.90;;;;;;5154039;27;20427;-65
2023/05/22 00:27:46;;;;;;;18.60;15.95;;;17.60;99.90;;;;;;5154550;27;20130;-65
2023/05/22 00:30:12;;;;;;;18.50;16.50;;;17.60;99.90;;;;;;5153725;27;20113;-65
2023/05/22 00:32:38;;;;;;;19.15;16.75;;;17.60;99.90;;;;;;5155848;27;20086;-66
2023/05/22 00:35:05;;;;;;;16.23;14.52;;;17.60;99.90;;;;;;5157954;27;20419;-65
2023/05/22 00:37:31;;;;;;;19.65;15.85;;;17.60;99.90;;;;;;5158669;27;20042;-67
2023/05/22 00:39:56;;;;;;;20.95;18.75;;;17.60;99.90;;;;;;5158874;27;20049;-66
2023/05/22 00:42:22;;;;;;;19.48;16.45;;;17.60;99.90;;;;;;5158635;27;20054;-66
2023/05/22 00:44:48;;;;;;;20.02;16.55;;;17.60;99.90;;;;;;5158087;27;20121;-66
2023/05/22 00:47:14;;;;;;;19.20;17.20;;;17.60;99.90;;;;;;5158163;27;20054;-65
2023/05/22 00:49:41;;;;;;;23.45;19.42;;;17.60;99.90;;;;;;5158042;27;20054;-65
2023/05/22 00:52:08;;;;;;;21.83;18.75;;;17.60;99.90;;;;;;5158452;27;20478;-65
2023/05/22 00:54:35;;;;;;;22.75;18.73;;;17.60;99.90;;;;;;5157888;27;20039;-65
2023/05/22 00:57:02;;;;;;;21.08;17.02;;;17.50;99.90;;;;;;5139595;27;20050;-66
2023/05/22 00:59:28;;;;;;;20.25;16.65;;;17.60;99.90;;;;;;5157947;27;20086;-65
2023/05/22 01:01:55;;;;;;;23.65;19.08;;;17.60;99.90;;;;;;5157788;27;20038;-65
2023/05/22 01:04:22;;;;;;;20.70;16.33;;;17.50;99.90;;;;;;5158328;27;20057;-66
2023/05/22 01:06:48;;;;;;;23.50;18.63;;;17.60;99.90;;;;;;5157771;27;20043;-65
2023/05/22 01:09:14;;;;;;;19.77;17.65;;;17.60;99.90;;;;;;5157606;27;20107;-68
2023/05/22 01:11:48;;;;;;;23.42;18.23;;;17.60;99.90;;;;;;5158065;27;20043;-65
2023/05/22 01:14:45;;;;;;;22.38;17.65;;;17.50;99.90;;;;;;5157293;27;20061;-65
2023/05/22 01:17:21;;;;;;;19.20;16.88;;;17.60;99.90;;;;;;5139496;27;20047;-67
2023/05/22 01:19:59;;;;;;;17.60;15.77;;;17.60;99.90;;;;;;5158066;27;20043;-65
2023/05/22 01:23:02;;;;;;;21.00;17.60;;;17.60;99.90;;;;;;5157774;27;20475;-66
2023/05/22 01:26:04;;;;;;;20.35;18.15;;;17.60;99.90;;;;;;5157313;27;20133;-65
2023/05/22 01:28:58;;;;;;;19.73;17.40;;;17.60;99.90;;;;;;5157479;27;20039;-67
2023/05/22 01:31:25;;;;;;;;;;;17.60;99.90;;;;;;5157201;27;20134;-65
2023/05/22 01:33:54;;;;;;;21.38;17.67;;;17.50;99.90;;;;;;5138740;27;20362;-65
2023/05/22 01:36:23;;;;;;;18.55;16.10;;;17.50;99.90;;;;;;5157329;27;20066;-65
2023/05/22 01:38:51;;;;;;;22.67;18.48;;;17.50;99.90;;;;;;5157527;27;20047;-65
2023/05/22 01:41:18;;;;;;;17.75;15.98;;;17.50;99.90;;;;;;5139074;27;20043;-66
2023/05/22 01:43:44;;;;;;;17.27;15.38;;;17.50;99.90;;;;;;5156378;27;20042;-66
2023/05/22 01:46:10;;;;;;;21.05;15.82;;;17.50;99.90;;;;;;5157550;27;20051;-65
2023/05/22 01:48:36;;;;;;;19.85;17.50;;;17.50;99.90;;;;;;5156627;27;20459;-66
2023/05/22 01:51:22;;;;;;;21.33;17.50;;;17.50;99.90;;;;;;5156905;27;20126;-65
2023/05/22 01:54:09;;;;;;;22.75;18.40;;;17.50;99.90;;;;;;5139321;27;20544;-65
2023/05/22 01:57:20;;;;;;;19.85;17.80;;;17.50;99.90;;;;;;5157289;27;20047;-66
2023/05/22 02:00:14;;;;;;;19.83;16.27;;;17.50;99.90;;;;;;5112900;27;20491;-65
2023/05/22 02:02:42;;;;;;;;;;;17.40;99.90;;;;;;5147087;27;20050;-67
2023/05/22 02:05:11;;;;;;;23.50;18.52;;;17.40;99.90;;;;;;5156501;27;19975;-65
2023/05/22 02:07:39;;;;;;;19.70;16.45;;;17.40;99.90;;;;;;5156519;27;20049;-65
2023/05/22 02:10:07;;;;;;;26.13;19.95;;;17.40;99.90;;;;;;5156464;27;20117;-65
2023/05/22 02:12:34;;;;;;;23.92;21.42;;;17.40;99.90;;;;;;5156619;27;20046;-66
2023/05/22 02:15:00;;;;;;;23.08;20.27;;;17.40;99.90;;;;;;5156384;27;20424;-65
2023/05/22 02:17:26;;;;;;;26.13;20.70;;;17.40;99.90;;;;;;5156696;27;20042;-66
2023/05/22 02:19:52;;;;;;;25.55;21.55;;;17.40;99.90;;;;;;5157033;27;20102;-68
2023/05/22 02:22:18;;;;;;;27.30;21.55;;;17.40;99.90;;;;;;5156863;27;20502;-65
2023/05/22 02:24:46;;;;;;;24.90;21.60;;;17.30;99.90;;;;;;5156561;27;20380;-67
2023/05/22 02:27:12;;;;;;;27.70;22.13;;;17.30;99.90;;;;;;5137701;27;20071;-65
2023/05/22 02:29:38;;;;;;;25.75;21.58;;;17.30;99.90;;;;;;5156138;27;20099;-66
2023/05/22 02:32:04;;;;;;;24.23;21.27;;;17.30;99.90;;;;;;5137410;27;20090;-65
2023/05/22 02:34:30;;;;;;;25.98;21.35;;;17.30;99.90;;;;;;5156047;27;20043;-66
2023/05/22 02:37:02;;;;;;;23.60;21.05;;;17.30;99.90;;;;;;5156571;27;20442;-65
2023/05/22 02:39:28;;;;;;;26.08;21.45;;;17.30;99.90;;;;;;5155809;27;20058;-65
2023/05/22 02:41:54;;;;;;;25.25;22.50;;;17.30;99.90;;;;;;5155983;27;20107;-66
2023/05/22 02:44:20;;;;;;;26.75;22.17;;;17.30;99.90;;;;;;5155697;27;20050;-66
2023/05/22 02:46:46;;;;;;;25.30;20.85;;;17.30;99.90;;;;;;5155835;27;20046;-66
2023/05/22 02:49:12;;;;;;;24.42;20.65;;;17.30;99.90;;;;;;5156062;27;20054;-65
2023/05/22 02:51:38;;;;;;;22.98;20.10;;;17.30;99.90;;;;;;5137508;27;20121;-65
2023/05/22 02:54:04;;;;;;;24.02;21.48;;;17.30;99.90;;;;;;5155140;27;20108;-65
2023/05/22 02:56:29;;;;;;;23.58;20.23;;;17.30;99.90;;;;;;5155525;27;20042;-66
2023/05/22 02:58:58;;;;;;;25.88;21.98;;;17.30;99.90;;;;;;5155558;27;20430;-65
2023/05/22 03:01:25;;;;;;;26.15;22.83;;;17.30;99.90;;;;;;5156274;27;20050;-65
2023/05/22 03:03:51;;;;;;;26.45;23.65;;;17.20;99.90;;;;;;5137400;27;20125;-66
2023/05/22 03:06:17;;;;;;;28.60;23.20;;;17.20;99.90;;;;;;5137430;27;20039;-66
2023/05/22 03:08:43;;;;;;;26.08;22.00;;;17.20;99.90;;;;;;5155261;27;20049;-65
2023/05/22 03:11:09;;;;;;;27.23;22.55;;;17.20;99.90;;;;;;5155682;27;20363;-66
2023/05/22 03:13:35;;;;;;;30.95;25.20;;;17.20;99.90;;;;;;5155623;27;20046;-66
2023/05/22 03:16:01;;;;;;;27.23;22.27;;;17.20;99.90;;;;;;5154909;27;20054;-67
2023/05/22 03:18:27;;;;;;;25.00;22.17;;;17.10;99.90;;;;;;5155221;27;20127;-66
2023/05/22 03:20:52;;;;;;;27.10;21.48;;;17.10;99.90;;;;;;5155600;27;20131;-65
2023/05/22 03:23:21;;;;;;;23.80;19.50;;;17.10;99.90;;;;;;5155101;27;20477;-65
2023/05/22 03:25:47;;;;;;;24.85;22.05;;;17.20;99.90;;;;;;5155227;27;20195;-65
2023/05/22 03:28:13;;;;;;;25.23;21.20;;;17.20;99.90;;;;;;5155280;27;20109;-65
2023/05/22 03:30:40;;;;;;;24.48;20.40;;;17.20;99.90;;;;;;5154647;27;20069;-65
2023/05/22 03:33:05;;;;;;;26.48;22.27;;;17.20;99.90;;;;;;5136428;27;20047;-65
2023/05/22 03:35:31;;;;;;;24.67;20.75;;;17.60;99.90;;;;;;5154838;27;20095;-65
2023/05/22 03:37:57;;;;;;;27.27;21.95;;;17.10;99.90;;;;;;5155279;27;20107;-66
2023/05/22 03:40:22;;;;;;;22.98;19.08;;;17.10;99.90;;;;;;5154877;27;20082;-65
2023/05/22 03:42:48;;;;;;;26.10;21.77;;;17.20;99.90;;;;;;5155227;27;20043;-66
2023/05/22 03:45:14;;;;;;;29.10;23.73;;;17.10;99.90;;;;;;5154598;27;20422;-66
2023/05/22 03:47:40;;;;;;;24.52;20.50;;;17.10;99.90;;;;;;5154782;27;20117;-66
2023/05/22 03:50:06;;;;;;;28.25;22.77;;;17.10;99.90;;;;;;5154646;27;20089;-65
2023/05/22 03:52:32;;;;;;;26.75;21.77;;;17.10;99.90;;;;;;5154610;27;20494;-65
2023/05/22 03:54:57;;;;;;;23.70;21.25;;;17.10;99.90;;;;;;5119795;27;20205;-66
2023/05/22 03:57:23;;;;;;;24.48;20.30;;;17.10;99.90;;;;;;5136064;27;20050;-65
2023/05/22 03:59:49;;;;;;;26.77;20.98;;;17.10;99.90;;;;;;5154405;27;20054;-66
2023/05/22 04:02:15;;;;;;;26.83;22.35;;;17.10;99.90;;;;;;5154472;27;20078;-66
2023/05/22 04:04:41;;;;;;;25.50;21.90;;;17.10;99.90;;;;;;5154372;27;20042;-66
2023/05/22 04:07:07;;;;;;;27.60;23.70;;;17.10;99.90;;;;;;5154133;27;20046;-66
2023/05/22 04:09:34;;;;;;;25.42;20.98;;;17.10;99.90;;;;;;5154460;27;20043;-66
2023/05/22 04:12:01;;;;;;;25.35;19.63;;;17.10;99.90;;;;;;5154738;27;20042;-65
2023/05/22 04:14:27;;;;;;;25.75;21.85;;;17.10;99.90;;;;;;5154270;27;20074;-65
2023/05/22 04:16:53;;;;;;;27.25;21.83;;;17.10;99.90;;;;;;5154493;27;20121;-65
2023/05/22 04:19:19;;;;;;;25.85;21.80;;;17.10;99.90;;;;;;5154875;27;20501;-66
2023/05/22 04:21:44;;;;;;;24.27;21.77;;;17.10;99.90;;;;;;5154685;27;20359;-66
2023/05/22 04:24:10;;;;;;;26.75;22.90;;;17.10;99.90;;;;;;5135978;27;20042;-65
2023/05/22 04:26:37;;;;;;;28.48;22.90;;;17.10;99.90;;;;;;5154534;27;20046;-66
2023/05/22 04:29:03;;;;;;;25.55;22.83;;;17.10;99.90;;;;;;5154136;27;20515;-66
2023/05/22 04:31:29;;;;;;;24.35;21.52;;;17.10;99.90;;;;;;5153988;27;20051;-66
2023/05/22 04:33:55;;;;;;;29.13;23.10;;;17.10;99.90;;;;;;5153957;27;20051;-66
2023/05/22 04:36:21;;;;;;;23.30;20.75;;;17.10;99.90;;;;;;5154249;27;20035;-65
2023/05/22 04:38:49;;;;;;;25.85;21.35;;;17.10;99.90;;;;;;5154079;27;20042;-66
2023/05/22 04:41:16;;;;;;;27.88;23.15;;;17.10;99.90;;;;;;5154138;27;20043;-66
2023/05/22 04:43:43;;;;;;;30.13;24.38;;;17.10;99.90;;;;;;5153962;27;20050;-67
2023/05/22 04:46:09;;;;;;;27.60;22.75;;;17.10;99.90;;;;;;5135653;27;20038;-66
2023/05/22 04:48:35;;;;;;;32.25;24.95;;;17.00;99.90;;;;;;5135624;27;20039;-67
2023/05/22 04:51:03;;;;;;;27.33;23.90;;;17.00;99.90;;;;;;5153954;27;20510;-68
2023/05/22 04:53:29;;;;;;;29.45;23.88;;;16.90;99.90;;;;;;5153897;27;20046;-66
2023/05/22 04:55:56;;;;;;;28.45;25.30;;;16.90;99.90;;;;;;5153873;27;20038;-67
2023/05/22 04:58:22;;;;;;;31.20;25.80;;;16.90;99.90;;;;;;5153781;27;20134;-66
2023/05/22 05:00:48;;;;;;;28.15;25.15;;;16.80;99.90;;;;;;5135078;27;20061;-66
2023/05/22 05:03:14;;;;;;;25.42;22.10;;;16.80;99.90;;;;;;5153624;27;20046;-68
2023/05/22 05:05:40;;;;;;;31.38;25.10;;;16.80;99.90;;;;;;5153448;27;20070;-67
2023/05/22 05:08:06;;;;;;;29.98;25.17;;;16.80;99.90;;;;;;5154032;27;20046;-66
2023/05/22 05:10:31;;;;;;;29.35;24.00;;;16.80;99.90;;;;;;5153749;27;20557;-66
2023/05/22 05:12:57;;;;;;;30.02;24.88;;;16.80;99.90;;;;;;5135504;27;20078;-66
2023/05/22 05:15:23;;;;;;;31.58;25.60;;;16.80;99.90;;;;;;5153792;27;20042;-66
2023/05/22 05:17:48;;;;;;;31.40;24.42;;;16.70;99.90;;;;;;5154468;27;20054;-66
2023/05/22 05:20:14;;;;;;;26.98;23.17;;;16.80;99.90;;;;;;5157897;27;20042;-66
2023/05/22 05:22:42;;;;;;;32.28;24.77;;;16.80;99.90;;;;;;5139665;27;20490;-66
2023/05/22 05:25:08;;;;;;;33.55;25.00;;;16.80;99.90;;;;;;5157093;27;20052;-66
2023/05/22 05:27:34;;;;;;;27.17;23.98;;;16.80;99.90;;;;;;5157249;27;20043;-66
2023/05/22 05:30:00;;;;;;;29.90;24.38;;;16.80;99.90;;;;;;5138974;27;20086;-66
2023/05/22 05:32:26;;;;;;;31.90;23.58;;;16.80;99.90;;;;;;5156660;27;20073;-67
2023/05/22 05:34:51;;;;;;;29.70;22.85;;;16.80;99.90;;;;;;5157191;27;20035;-66
2023/05/22 05:37:17;;;;;;;25.45;20.90;;;16.90;99.90;;;;;;5156910;27;20046;-66
2023/05/22 05:39:43;;;;;;;26.38;22.23;;;16.90;99.90;;;;;;5156781;27;20082;-66
2023/05/22 05:42:09;;;;;;;27.08;21.45;;;16.90;99.90;;;;;;5156595;27;20093;-66
2023/05/22 05:44:34;;;;;;;25.13;19.40;;;16.90;99.90;;;;;;5138236;27;20070;-66
2023/05/22 05:47:00;;;;;;;24.52;20.60;;;16.90;99.90;;;;;;5156785;27;20053;-66
2023/05/22 05:49:26;;;;;;;27.13;19.65;;;16.90;99.90;;;;;;5156758;27;20058;-66
2023/05/22 05:51:52;;;;;;;22.80;19.10;;;16.90;99.90;;;;;;5137996;27;20051;-66
2023/05/22 05:54:18;;;;;;;25.90;19.77;;;17.00;99.90;;;;;;5121517;27;20042;-66
2023/05/22 05:56:43;;;;;;;21.88;17.65;;;16.90;99.90;;;;;;5157119;27;20051;-66
2023/05/22 05:59:09;;;;;;;21.60;19.13;;;16.90;99.90;;;;;;5156552;27;20379;-67
2023/05/22 06:01:36;;;;;;;21.50;18.88;;;16.90;99.90;;;;;;5137956;27;20046;-66
2023/05/22 06:04:02;;;;;;;20.63;17.70;;;17.00;99.90;;;;;;5156282;27;20042;-65
2023/05/22 06:06:35;;;;;;;23.77;18.25;;;17.00;99.90;;;;;;5137997;27;20114;-67
2023/05/22 06:09:02;;;;;;;22.67;16.37;;;17.00;99.90;;;;;;5156397;27;20061;-66
2023/05/22 06:11:28;;;;;;;21.05;17.50;;;17.00;99.90;;;;;;5156456;27;20046;-65
2023/05/22 06:13:54;;;;;;;24.50;16.55;;;17.00;99.90;;;;;;5156750;27;20104;-67
2023/05/22 06:16:19;;;;;;;20.10;16.85;;;17.00;99.90;;;;;;5156323;27;20047;-67
2023/05/22 06:18:45;;;;;;;18.83;16.88;;;17.00;99.90;;;;;;5137873;27;20129;-66
2023/05/22 06:21:11;;;;;;;21.98;17.10;;;17.00;99.90;;;;;;5156509;27;20039;-67
2023/05/22 06:23:37;;;;;;;23.80;18.80;;;17.00;99.90;;;;;;5138525;27;20519;-66
2023/05/22 06:26:03;;;;;;;20.13;15.88;;;17.00;99.90;;;;;;5138050;27;20123;-65
2023/05/22 06:28:30;;;;;;;19.70;16.48;;;17.10;99.90;;;;;;5137616;27;20047;-66
2023/05/22 06:30:56;;;;;;;19.52;15.88;;;17.10;99.90;;;;;;5155642;27;20087;-65
2023/05/22 06:33:22;;;;;;;20.25;17.00;;;17.00;99.90;;;;;;5156113;27;20050;-66
2023/05/22 06:35:48;;;;;;;19.40;16.23;;;17.10;99.90;;;;;;5138192;27;20047;-66
2023/05/22 06:38:13;;;;;;;17.67;15.80;;;17.10;99.90;;;;;;5137601;27;20039;-68
2023/05/22 06:40:39;;;;;;;23.20;15.60;;;16.80;99.90;;;;;;5156511;27;20074;-67
2023/05/22 06:43:05;;;;;;;21.33;15.23;;;17.20;99.90;;;;;;5137830;27;20397;-68
2023/05/22 06:45:30;;;;;;;18.27;14.75;;;17.10;99.90;;;;;;5137496;27;20123;-67
2023/05/22 06:47:56;;;;;;;17.60;15.55;;;17.10;99.90;;;;;;5156330;27;20099;-66
2023/05/22 06:50:22;;;;;;;17.48;13.93;;;17.20;99.90;;;;;;5155571;27;20486;-66
2023/05/22 06:52:48;;;;;;;16.63;14.25;;;17.10;99.90;;;;;;5103191;27;20086;-66
2023/05/22 06:55:14;;;;;;;18.90;15.68;;;17.20;99.90;;;;;;5137551;27;20057;-67
2023/05/22 06:57:39;;;;;;;19.27;14.65;;;17.20;99.90;;;;;;5155774;27;20058;-68
2023/05/22 07:00:11;;;;;;;16.42;14.18;;;17.20;99.90;;;;;;5137416;27;20466;-66
2023/05/22 07:02:36;;;;;;;17.10;14.80;;;17.20;99.90;;;;;;5155509;27;20129;-66
2023/05/22 07:05:02;;;;;;;17.27;14.27;;;17.20;99.90;;;;;;5155280;27;20114;-65
2023/05/22 07:07:28;;;;;;;17.77;13.75;;;17.20;99.90;;;;;;5120383;27;20103;-65
2023/05/22 07:09:54;;;;;;;17.23;13.38;;;17.20;99.90;;;;;;5154932;27;20039;-68
2023/05/22 07:12:24;;;;;;;19.35;13.68;;;17.80;99.90;;;;;;5137385;27;20054;-67
2023/05/22 07:14:51;;;;;;;17.73;12.77;;;17.10;99.90;;;;;;5154919;27;20042;-65
2023/05/22 07:17:17;;;;;;;20.13;13.23;;;17.10;99.90;;;;;;5155170;27;20070;-66
2023/05/22 07:19:43;;;;;;;19.08;14.38;;;17.10;99.90;;;;;;5154658;27;20054;-66
2023/05/22 07:22:08;;;;;;;17.60;12.68;;;17.00;99.90;;;;;;5154841;27;20035;-66
2023/05/22 07:24:34;;;;;;;21.75;13.30;;;17.00;99.90;;;;;;5154419;27;20043;-67
2023/05/22 07:27:03;;;;;;;17.13;12.52;;;17.00;99.90;;;;;;5136395;27;20123;-66
2023/05/22 07:29:29;;;;;;;23.58;12.23;;;17.00;99.90;;;;;;5155207;27;20097;-67
2023/05/22 07:31:54;;;;;;;17.10;11.57;;;17.00;99.90;;;;;;5154523;27;20073;-66
2023/05/22 07:34:21;;;;;;;15.80;11.38;;;16.90;99.90;;;;;;5136216;27;20470;-66
2023/05/22 07:36:46;;;;;;;17.00;10.98;;;16.90;99.90;;;;;;5155039;27;20067;-66
2023/05/22 07:39:12;;;;;;;15.55;11.05;;;16.90;99.90;;;;;;5154505;27;20476;-66
2023/05/22 07:41:39;;;;;;;16.13;10.32;;;16.90;99.90;;;;;;5135545;27;20094;-65
2023/05/22 07:44:04;;;;;;;20.17;10.07;;;16.80;99.90;;;;;;5154832;27;20086;-66
2023/05/22 07:46:30;;;;;;;17.10;10.05;;;16.80;99.90;;;;;;5136120;27;20049;-66
2023/05/22 07:48:56;;;;;;;17.48;10.15;;;16.80;99.90;;;;;;5154399;27;20540;-67
2023/05/22 07:51:22;;;;;;;17.08;12.70;;;16.80;99.90;;;;;;5154740;27;20104;-66
2023/05/22 07:53:47;;;;;;;20.00;10.98;;;16.80;99.90;;;;;;5154691;27;20081;-67
2023/05/22 07:56:13;;;;;;;19.23;9.57;;;16.70;99.90;;;;;;5154638;27;20034;-67
2023/05/22 07:58:39;;;;;;;13.25;9.57;;;16.70;99.90;;;;;;5154018;27;20052;-67
2023/05/22 08:01:06;;;;;;;16.95;9.82;;;16.80;99.90;;;;;;5135517;27;20115;-67
2023/05/22 08:03:32;;;;;;;19.20;10.05;;;16.80;99.90;;;;;;5154472;27;20049;-66
2023/05/22 08:05:58;;;;;;;20.15;10.10;;;16.90;99.90;;;;;;5135975;27;20125;-66
2023/05/22 08:08:24;;;;;;;17.77;9.88;;;16.90;99.90;;;;;;5135989;27;20046;-67
2023/05/22 08:10:50;;;;;;;18.40;10.07;;;16.90;99.90;;;;;;5135840;27;20499;-67
2023/05/22 08:13:18;;;;;;;18.67;10.48;;;16.90;99.90;;;;;;5154252;27;20043;-66
2023/05/22 08:15:43;;;;;;;20.02;10.00;;;16.90;99.90;;;;;;5154413;27;20043;-63
2023/05/22 08:18:10;;;;;;;22.67;10.50;;;16.90;99.90;;;;;;5154356;27;20073;-64
2023/05/22 08:20:37;;;;;;;17.15;10.52;;;16.80;99.90;;;;;;5154188;27;20046;-66
2023/05/22 08:23:03;;;;;;;18.23;10.35;;;16.90;99.90;;;;;;5154120;27;20550;-66
2023/05/22 08:25:28;;;;;;;22.98;10.23;;;16.80;99.90;;;;;;5153845;27;20130;-66
2023/05/22 08:27:54;;;;;;;19.15;9.93;;;16.80;99.90;;;;;;5154372;27;20113;-66
2023/05/22 08:30:20;;;;;;;15.68;9.52;;;16.80;99.90;;;;;;5154244;27;20095;-66
2023/05/22 08:32:45;;;;;;;19.30;10.00;;;16.80;99.90;;;;;;5153605;27;20473;-66
2023/05/22 08:35:13;;;;;;;15.95;10.43;;;16.80;99.90;;;;;;5135832;27;20372;-66
2023/05/22 08:37:38;;;;;;;18.27;10.38;;;16.80;99.90;;;;;;5135655;27;20094;-66
2023/05/22 08:40:07;;;;;;;19.02;10.63;;;16.80;99.90;;;;;;5135749;27;20110;-65
2023/05/22 08:42:33;;;;;;;18.88;10.05;;;16.70;99.90;;;;;;5135505;27;20038;-66
2023/05/22 08:44:59;;;;;;;12.40;9.43;;;16.80;99.90;;;;;;5154232;27;20046;-66
2023/05/22 08:47:27;;;;;;;17.63;11.13;;;16.80;99.90;;;;;;5135655;27;20050;-66
2023/05/22 08:49:54;;;;;;;16.42;11.10;;;16.80;99.90;;;;;;5154220;27;20142;-66
2023/05/22 08:52:32;;;;;;;18.42;10.40;;;16.80;99.90;;;;;;5154255;27;20064;-67
2023/05/22 08:54:59;;;;;;;18.60;11.20;;;16.80;99.90;;;;;;5158720;27;20042;-66
2023/05/22 08:57:26;;;;;;;20.52;11.45;;;16.80;99.90;;;;;;5157900;27;20090;-67
2023/05/22 08:59:52;;;;;;;17.67;12.25;;;16.80;99.90;;;;;;5158075;27;20065;-66
2023/05/22 09:02:18;;;;;;;18.30;11.48;;;16.80;99.90;;;;;;5157879;27;20047;-66
2023/05/22 09:04:44;;;;;;;16.70;11.93;;;16.80;99.90;;;;;;5158382;27;20038;-66
2023/05/22 09:07:10;;;;;;;24.40;12.15;;;16.80;99.90;;;;;;5158205;27;20042;-66
2023/05/22 09:09:39;;;;;;;21.10;11.35;;;16.80;99.90;;;;;;5157850;27;20066;-67
2023/05/22 09:12:09;;;;;;;17.40;10.57;;;16.80;99.90;;;;;;5157610;27;20493;-66
2023/05/22 09:14:42;;;;;;;20.98;12.18;;;16.70;99.90;;;;;;5157579;27;20130;-67
2023/05/22 09:17:08;;;;;;;;;;;16.70;99.90;;;;;;5157971;27;20542;-66
2023/05/22 09:19:34;;;;;;;24.75;12.27;;;16.70;99.90;;;;;;5157211;27;20367;-66
2023/05/22 09:22:06;;;;;;;20.45;12.40;;;16.70;99.90;;;;;;5157842;27;20055;-66
2023/05/22 09:24:41;;;;;;;24.48;12.60;;;16.70;99.90;;;;;;5157339;27;20043;-66
2023/05/22 09:27:07;;;;;;;23.33;13.45;;;16.80;99.90;;;;;;5139758;27;20046;-66
2023/05/22 09:29:47;;;;;;;24.33;12.88;;;17.00;99.90;;;;;;5157346;27;20440;-66
2023/05/22 09:32:14;;;;;;;22.02;13.18;;;17.00;99.90;;;;;;5138650;27;20058;-66
2023/05/22 09:34:39;;;;;;;18.67;12.10;;;17.10;99.90;;;;;;5157684;27;20440;-66
2023/05/22 09:37:05;;;;;;;22.27;12.93;;;17.40;99.90;;;;;;5157630;27;20123;-64
2023/05/22 09:39:39;;;;;;;19.92;12.38;;;17.70;99.90;;;;;;5157519;27;20043;-65
2023/05/22 09:42:08;;;;;;;20.85;13.05;;;17.90;99.90;;;;;;5139186;27;20398;-65
2023/05/22 09:44:34;;;;;;;16.67;12.10;;;18.00;99.90;;;;;;5138759;27;20054;-66
2023/05/22 09:47:00;;;;;;;15.45;11.77;;;18.40;99.90;;;;;;5157065;27;20035;-64
2023/05/22 09:49:25;;;;;;;20.90;11.40;;;18.70;99.90;;;;;;5156715;27;20050;-64
2023/05/22 09:51:54;;;;;;;23.27;12.10;;;18.90;99.90;;;;;;5157063;27;20050;-65
2023/05/22 09:54:20;;;;;;;15.57;10.52;;;19.70;99.90;;;;;;5138240;27;20122;-64
2023/05/22 09:56:48;;;;;;;16.88;11.70;;;20.50;99.90;;;;;;5156771;27;20053;-65
2023/05/22 09:59:21;;;;;;;22.17;12.02;;;21.30;99.90;;;;;;5156859;27;20047;-65
2023/05/22 10:01:49;;;;;;;12.77;9.80;;;21.50;99.90;;;;;;5156800;27;20484;-65
2023/05/22 10:04:17;;;;;;;15.32;11.10;;;21.50;99.90;;;;;;5156778;27;20043;-65
2023/05/22 10:06:48;;;;;;;18.67;11.90;;;21.60;99.90;;;;;;5156626;27;20068;-66
2023/05/22 10:09:16;;;;;;;14.20;10.20;;;21.60;99.90;;;;;;5156694;27;20042;-65
2023/05/22 10:11:43;;;;;;;22.35;10.55;;;21.90;99.90;;;;;;5157056;27;20062;-65
2023/05/22 10:14:10;;;;;;;19.25;9.48;;;21.80;99.90;;;;;;5138226;27;20047;-65
2023/05/22 10:16:40;;;;;;;15.57;10.63;;;22.00;99.90;;;;;;5121028;27;20435;-65
2023/05/22 10:19:07;;;;;;;15.73;10.23;;;22.00;99.90;;;;;;5156459;27;20467;-64
2023/05/22 10:21:35;;;;;;;14.15;10.60;;;22.70;99.90;;;;;;5137969;27;20038;-65
2023/05/22 10:24:02;;;;;;;15.40;10.68;;;22.80;99.90;;;;;;5156137;27;20479;-65
2023/05/22 10:26:28;;;;;;;13.35;10.15;;;22.70;99.90;;;;;;5138330;27;20463;-65
2023/05/22 10:29:06;;;;;;;18.65;11.55;;;22.70;99.90;;;;;;5138576;27;20058;-65
2023/05/22 10:31:42;;;;;;;20.83;11.43;;;22.60;99.90;;;;;;5137708;27;20042;-65
2023/05/22 10:34:16;;;;;;;17.05;9.93;;;22.40;99.90;;;;;;5156679;27;20175;-65
2023/05/22 10:36:58;;;;;;;12.82;10.93;;;22.40;99.90;;;;;;5156063;27;20125;-64
2023/05/22 10:39:42;;;;;;;17.95;11.40;;;22.40;99.90;;;;;;5156201;27;20046;-65
2023/05/22 10:42:14;;;;;;;19.42;11.25;;;22.00;99.90;;;;;;5156108;27;20042;-67
2023/05/22 10:44:40;;;;;;;16.25;11.27;;;21.90;99.90;;;;;;5137742;27;20047;-66
2023/05/22 10:47:10;;;;;;;18.00;11.55;;;22.00;99.90;;;;;;5155783;27;20053;-65
2023/05/22 10:49:37;;;;;;;14.88;12.40;;;22.00;99.90;;;;;;5155526;27;20075;-67
2023/05/22 10:52:03;;;;;;;18.80;10.68;;;22.10;99.90;;;;;;5155597;27;20113;-65
2023/05/22 10:54:43;;;;;;;16.75;11.52;;;22.30;99.90;;;;;;5137235;27;20129;-65
2023/05/22 10:57:19;;;;;;;15.25;10.82;;;22.40;99.90;;;;;;5155785;27;20046;-65
2023/05/22 10:59:48;;;;;;;12.95;10.70;;;22.60;99.90;;;;;;5155954;27;20042;-65
2023/05/22 11:02:28;;;;;;;14.93;11.23;;;22.90;99.90;;;;;;5137048;27;20038;-67
2023/05/22 11:04:54;;;;;;;17.90;11.90;;;22.80;99.90;;;;;;5155221;27;20038;-67
2023/05/22 11:07:20;;;;;;;15.80;11.18;;;22.80;99.90;;;;;;5155235;27;20049;-65
2023/05/22 11:09:52;;;;;;;16.17;11.68;;;22.70;99.90;;;;;;5120048;27;20093;-66
2023/05/22 11:12:27;;;;;;;15.27;11.57;;;22.60;99.90;;;;;;5155572;27;20050;-65
2023/05/22 11:15:07;;;;;;;14.40;11.05;;;22.70;99.90;;;;;;5154978;27;20111;-65
2023/05/22 11:17:35;;;;;;;16.52;9.80;;;22.60;99.90;;;;;;5154693;27;20085;-65
2023/05/22 11:20:05;;;;;;;17.75;10.77;;;22.80;99.90;;;;;;5155504;27;20042;-65
2023/05/22 11:22:36;;;;;;;12.68;10.60;;;22.90;99.90;;;;;;5155348;27;20043;-65
2023/05/22 11:25:08;;;;;;;15.23;10.02;;;23.10;99.90;;;;;;5154753;27;20053;-66
2023/05/22 11:27:35;;;;;;;15.23;10.85;;;23.20;99.90;;;;;;5136916;27;20166;-67
2023/05/22 11:30:02;;;;;;;17.65;11.52;;;23.30;99.90;;;;;;5154647;27;20483;-65
2023/05/22 11:32:28;;;;;;;15.75;11.65;;;23.50;99.90;;;;;;5155558;27;20114;-65
2023/05/22 11:34:56;;;;;;;18.85;12.70;;;23.60;99.90;;;;;;5155229;27;20047;-65
2023/05/22 11:37:22;;;;;;;19.65;14.27;;;23.60;99.90;;;;;;5136135;27;20344;-66
2023/05/22 11:39:56;;;;;;;17.67;14.25;;;23.40;99.90;;;;;;5154420;27;20043;-65
2023/05/22 11:42:21;;;;;;;16.17;13.68;;;23.50;99.90;;;;;;5136248;27;20482;-65
2023/05/22 11:44:47;;;;;;;16.42;13.30;;;23.30;99.90;;;;;;5154531;27;20043;-66
2023/05/22 11:47:13;;;;;;;17.30;14.57;;;23.40;99.90;;;;;;5154484;27;20049;-65
2023/05/22 11:49:43;;;;;;;17.90;13.88;;;23.50;99.90;;;;;;5136320;27;20070;-65
2023/05/22 11:52:09;;;;;;;20.10;15.00;;;23.60;99.90;;;;;;5154077;27;20547;-65
2023/05/22 11:54:35;;;;;;;18.95;15.48;;;23.70;99.90;;;;;;5136006;27;20118;-65
2023/05/22 11:57:07;;;;;;;17.38;14.35;;;23.70;99.90;;;;;;5154488;27;20132;-65
2023/05/22 11:59:33;;;;;;;21.48;14.68;;;23.80;99.90;;;;;;5154311;27;20046;-66
2023/05/22 12:01:59;;;;;;;19.02;15.32;;;23.60;99.90;;;;;;5154240;27;20039;-66
2023/05/22 12:04:25;;;;;;;19.58;15.40;;;23.70;99.90;;;;;;5154205;27;20039;-66
2023/05/22 12:06:52;;;;;;;18.85;16.08;;;23.70;99.90;;;;;;5154410;27;20042;-67
2023/05/22 12:09:18;;;;;;;17.73;14.77;;;23.90;99.90;;;;;;5119050;27;20065;-67
2023/05/22 12:11:47;;;;;;;17.73;15.15;;;24.10;99.90;;;;;;5154337;27;20475;-65
2023/05/22 12:14:13;;;;;;;19.40;14.85;;;24.20;99.90;;;;;;5153928;27;20039;-66
2023/05/22 12:16:39;;;;;;;22.65;17.20;;;24.20;99.90;;;;;;5154083;27;20050;-65
2023/05/22 12:19:09;;;;;;;20.58;17.08;;;24.10;99.90;;;;;;5135751;27;20051;-65
2023/05/22 12:21:40;;;;;;;19.17;16.45;;;23.90;99.90;;;;;;5154080;27;20042;-65
2023/05/22 12:24:07;;;;;;;18.92;16.70;;;23.90;99.90;;;;;;5135963;27;20049;-67
2023/05/22 12:26:32;;;;;;;20.60;16.17;;;23.80;99.90;;;;;;5155021;27;20046;-66
2023/05/22 12:28:58;;;;;;;21.08;16.27;;;24.00;99.90;;;;;;5142977;27;20388;-68
2023/05/22 12:31:25;;;;;;;18.95;14.90;;;24.00;99.90;;;;;;5160541;27;20050;-65